PDT5847 KAGS-KCLT
Flight info
| Callsign | PDT5847 |
|---|---|
| Flight time | 0h 33m |
| Altitude | 19000 |
| Route | PONZE BANKR5 |
| Aircraft | E145/M-SDFGIRW/S |
Departure
| Time | 2026-05-04 13:44 |
|---|---|
| Airport | Augusta Regional At Bush Field (KAGS) |
Arrival
| Time | 2026-05-04 14:17 |
|---|---|
| Airport | Charlotte Douglas International Airport (KCLT) |
| Time | Latitude | Longitude | Altitude | Speed | Heading |
|---|---|---|---|---|---|
| 2026-05-04 13:09 | 33.37344 | -81.97166 | 144 ft | 0 kts | 350° |
| 2026-05-04 13:35 | 33.37336 | -81.97165 | 144 ft | 2 kts | 350° |
| 2026-05-04 13:36 | 33.37322 | -81.97162 | 144 ft | 2 kts | 350° |
| 2026-05-04 13:36 | 33.37307 | -81.97160 | 144 ft | 2 kts | 19° |
| 2026-05-04 13:36 | 33.37294 | -81.97171 | 144 ft | 2 kts | 58° |
| 2026-05-04 13:36 | 33.37291 | -81.97182 | 144 ft | 0 kts | 79° |
| 2026-05-04 13:38 | 33.37294 | -81.97165 | 144 ft | 4 kts | 77° |
| 2026-05-04 13:39 | 33.37305 | -81.97109 | 143 ft | 8 kts | 83° |
| 2026-05-04 13:39 | 33.37250 | -81.97076 | 143 ft | 11 kts | 167° |
| 2026-05-04 13:39 | 33.37162 | -81.97053 | 141 ft | 14 kts | 168° |
| 2026-05-04 13:39 | 33.37062 | -81.97028 | 141 ft | 10 kts | 167° |
| 2026-05-04 13:40 | 33.36984 | -81.97007 | 141 ft | 12 kts | 168° |
| 2026-05-04 13:40 | 33.36884 | -81.96983 | 139 ft | 13 kts | 168° |
| 2026-05-04 13:40 | 33.36831 | -81.96910 | 138 ft | 14 kts | 81° |
| 2026-05-04 13:40 | 33.36755 | -81.96848 | 138 ft | 16 kts | 168° |
| 2026-05-04 13:41 | 33.36692 | -81.96926 | 138 ft | 14 kts | 206° |
| 2026-05-04 13:41 | 33.36587 | -81.96905 | 136 ft | 17 kts | 169° |
| 2026-05-04 13:41 | 33.36456 | -81.96873 | 135 ft | 20 kts | 169° |
| 2026-05-04 13:42 | 33.36155 | -81.96799 | 135 ft | 22 kts | 167° |
| 2026-05-04 13:42 | 33.36099 | -81.96694 | 135 ft | 17 kts | 90° |
| 2026-05-04 13:42 | 33.36110 | -81.96564 | 135 ft | 11 kts | 45° |
| 2026-05-04 13:42 | 33.36157 | -81.96566 | 135 ft | 0 kts | 347° |
| 2026-05-04 13:43 | 33.36176 | -81.96571 | 135 ft | 5 kts | 348° |
| 2026-05-04 13:43 | 33.36177 | -81.96571 | 135 ft | 0 kts | 348° |
| 2026-05-04 13:43 | 33.36216 | -81.96581 | 135 ft | 29 kts | 348° |
| 2026-05-04 13:43 | 33.36695 | -81.96699 | 138 ft | 107 kts | 348° |
| 2026-05-04 13:44 | 33.37612 | -81.96926 | 261 ft | 150 kts | 348° |
| 2026-05-04 13:44 | 33.38650 | -81.97183 | 925 ft | 155 kts | 347° |
| 2026-05-04 13:44 | 33.39722 | -81.97486 | 1548 ft | 162 kts | 344° |
| 2026-05-04 13:44 | 33.40838 | -81.97832 | 2038 ft | 176 kts | 343° |
| 2026-05-04 13:45 | 33.42128 | -81.98014 | 2590 ft | 193 kts | 1° |
| 2026-05-04 13:45 | 33.43435 | -81.97857 | 3467 ft | 189 kts | 6° |
| 2026-05-04 13:45 | 33.44709 | -81.97643 | 4100 ft | 198 kts | 0° |
| 2026-05-04 13:45 | 33.46252 | -81.97608 | 4149 ft | 240 kts | 0° |
| 2026-05-04 13:46 | 33.48014 | -81.97540 | 4630 ft | 258 kts | 0° |
| 2026-05-04 13:46 | 33.49774 | -81.97467 | 5567 ft | 256 kts | 1° |
| 2026-05-04 13:46 | 33.51540 | -81.97394 | 6465 ft | 255 kts | 1° |
| 2026-05-04 13:46 | 33.53306 | -81.97320 | 7220 ft | 259 kts | 1° |
| 2026-05-04 13:47 | 33.55110 | -81.97244 | 7977 ft | 262 kts | 1° |
| 2026-05-04 13:47 | 33.56941 | -81.97168 | 8725 ft | 265 kts | 1° |
| 2026-05-04 13:47 | 33.58782 | -81.97091 | 9465 ft | 267 kts | 1° |
| 2026-05-04 13:47 | 33.60645 | -81.97012 | 10201 ft | 269 kts | 1° |
| 2026-05-04 13:48 | 33.62539 | -81.96933 | 10764 ft | 278 kts | 1° |
| 2026-05-04 13:48 | 33.64510 | -81.96851 | 11174 ft | 291 kts | 1° |
| 2026-05-04 13:48 | 33.66572 | -81.96764 | 11641 ft | 300 kts | 1° |
| 2026-05-04 13:48 | 33.68695 | -81.96675 | 12095 ft | 310 kts | 0° |
| 2026-05-04 13:49 | 33.70871 | -81.96584 | 12609 ft | 317 kts | 0° |
| 2026-05-04 13:49 | 33.73072 | -81.96491 | 13212 ft | 319 kts | 0° |
| 2026-05-04 13:49 | 33.75315 | -81.96397 | 13818 ft | 322 kts | 0° |
| 2026-05-04 13:49 | 33.77571 | -81.96287 | 14409 ft | 325 kts | 2° |
| 2026-05-04 13:50 | 33.79771 | -81.95581 | 14955 ft | 332 kts | 18° |
| 2026-05-04 13:50 | 33.81946 | -81.94598 | 15492 ft | 336 kts | 17° |
| 2026-05-04 13:50 | 33.84150 | -81.93612 | 16025 ft | 339 kts | 17° |
| 2026-05-04 13:50 | 33.86365 | -81.92620 | 16585 ft | 341 kts | 16° |
| 2026-05-04 13:51 | 33.88589 | -81.91625 | 17095 ft | 344 kts | 16° |
| 2026-05-04 13:51 | 33.90836 | -81.90618 | 17592 ft | 347 kts | 16° |
| 2026-05-04 13:51 | 33.93095 | -81.89605 | 18155 ft | 348 kts | 15° |
| 2026-05-04 13:51 | 33.95364 | -81.88573 | 18754 ft | 348 kts | 16° |
| 2026-05-04 13:52 | 33.99854 | -81.86439 | 19123 ft | 343 kts | 16° |
| 2026-05-04 13:52 | 34.02080 | -81.85381 | 19127 ft | 343 kts | 16° |
| 2026-05-04 13:52 | 34.04303 | -81.84261 | 19124 ft | 345 kts | 22° |
| 2026-05-04 13:53 | 34.06353 | -81.82799 | 19133 ft | 347 kts | 26° |
| 2026-05-04 13:53 | 34.08454 | -81.81278 | 19130 ft | 347 kts | 26° |
| 2026-05-04 13:53 | 34.10504 | -81.79794 | 19127 ft | 348 kts | 26° |
| 2026-05-04 13:54 | 34.14662 | -81.76782 | 19132 ft | 348 kts | 26° |
| 2026-05-04 13:54 | 34.16736 | -81.75279 | 19137 ft | 348 kts | 26° |
| 2026-05-04 13:54 | 34.20898 | -81.72259 | 19149 ft | 350 kts | 26° |
| 2026-05-04 13:55 | 34.22982 | -81.70745 | 19145 ft | 350 kts | 26° |
| 2026-05-04 13:55 | 34.27162 | -81.67707 | 19141 ft | 351 kts | 26° |
| 2026-05-04 13:55 | 34.29258 | -81.66183 | 19140 ft | 351 kts | 26° |
| 2026-05-04 13:56 | 34.31352 | -81.64658 | 19139 ft | 352 kts | 26° |
| 2026-05-04 13:56 | 34.33445 | -81.63133 | 19138 ft | 352 kts | 26° |
| 2026-05-04 13:56 | 34.37658 | -81.60061 | 19137 ft | 352 kts | 26° |
| 2026-05-04 13:57 | 34.39751 | -81.58534 | 19121 ft | 351 kts | 26° |
| 2026-05-04 13:57 | 34.41836 | -81.57010 | 19135 ft | 351 kts | 26° |
| 2026-05-04 13:58 | 34.48115 | -81.52419 | 19129 ft | 351 kts | 26° |
| 2026-05-04 13:58 | 34.52201 | -81.49209 | 19129 ft | 352 kts | 28° |
| 2026-05-04 13:58 | 34.54241 | -81.47582 | 19129 ft | 352 kts | 28° |
| 2026-05-04 13:59 | 34.56288 | -81.45950 | 19128 ft | 352 kts | 28° |
| 2026-05-04 13:59 | 34.58349 | -81.44307 | 19129 ft | 352 kts | 28° |
| 2026-05-04 13:59 | 34.62444 | -81.41048 | 19131 ft | 352 kts | 28° |
| 2026-05-04 14:00 | 34.64500 | -81.39413 | 19134 ft | 353 kts | 28° |
| 2026-05-04 14:00 | 34.68590 | -81.36157 | 18857 ft | 348 kts | 28° |
| 2026-05-04 14:00 | 34.70590 | -81.34563 | 18622 ft | 347 kts | 28° |
| 2026-05-04 14:01 | 34.72609 | -81.32954 | 18384 ft | 346 kts | 28° |
| 2026-05-04 14:01 | 34.74620 | -81.31351 | 17984 ft | 347 kts | 29° |
| 2026-05-04 14:01 | 34.78637 | -81.28142 | 17094 ft | 341 kts | 29° |
| 2026-05-04 14:02 | 34.80563 | -81.26475 | 16636 ft | 342 kts | 37° |
| 2026-05-04 14:02 | 34.82280 | -81.24518 | 16189 ft | 336 kts | 39° |
| 2026-05-04 14:02 | 34.83981 | -81.22585 | 15735 ft | 334 kts | 38° |
| 2026-05-04 14:02 | 34.85649 | -81.20688 | 15287 ft | 331 kts | 38° |
| 2026-05-04 14:03 | 34.87320 | -81.18787 | 14806 ft | 329 kts | 38° |
| 2026-05-04 14:03 | 34.88991 | -81.16884 | 14327 ft | 326 kts | 38° |
| 2026-05-04 14:03 | 34.90647 | -81.14998 | 13881 ft | 324 kts | 38° |
| 2026-05-04 14:03 | 34.92258 | -81.13161 | 13432 ft | 317 kts | 38° |
| 2026-05-04 14:04 | 34.95427 | -81.09547 | 12494 ft | 306 kts | 38° |
| 2026-05-04 14:04 | 34.96965 | -81.07792 | 12001 ft | 303 kts | 38° |
| 2026-05-04 14:04 | 34.98518 | -81.06086 | 11481 ft | 297 kts | 31° |
| 2026-05-04 14:05 | 35.02284 | -81.05159 | 10516 ft | 274 kts | 352° |
| 2026-05-04 14:05 | 35.04160 | -81.05307 | 10039 ft | 272 kts | 352° |
| 2026-05-04 14:05 | 35.06047 | -81.05470 | 9560 ft | 271 kts | 352° |
| 2026-05-04 14:06 | 35.07925 | -81.05636 | 9068 ft | 270 kts | 352° |
| 2026-05-04 14:06 | 35.09783 | -81.05800 | 8678 ft | 265 kts | 352° |
| 2026-05-04 14:06 | 35.11601 | -81.05961 | 8304 ft | 261 kts | 352° |
| 2026-05-04 14:06 | 35.13404 | -81.06122 | 7927 ft | 257 kts | 352° |
| 2026-05-04 14:07 | 35.15181 | -81.06280 | 7563 ft | 254 kts | 353° |
| 2026-05-04 14:07 | 35.16944 | -81.06436 | 7315 ft | 253 kts | 352° |
| 2026-05-04 14:07 | 35.18689 | -81.06592 | 7068 ft | 252 kts | 352° |
| 2026-05-04 14:07 | 35.20436 | -81.06747 | 6820 ft | 251 kts | 353° |
| 2026-05-04 14:08 | 35.22177 | -81.06902 | 6569 ft | 249 kts | 353° |
| 2026-05-04 14:08 | 35.23906 | -81.07056 | 6320 ft | 248 kts | 353° |
| 2026-05-04 14:08 | 35.25629 | -81.07208 | 6093 ft | 246 kts | 353° |
| 2026-05-04 14:08 | 35.27327 | -81.07359 | 5895 ft | 246 kts | 353° |
| 2026-05-04 14:09 | 35.30759 | -81.07665 | 5495 ft | 245 kts | 353° |
| 2026-05-04 14:09 | 35.32458 | -81.07816 | 5293 ft | 243 kts | 353° |
| 2026-05-04 14:10 | 35.35841 | -81.08117 | 4895 ft | 245 kts | 353° |
| 2026-05-04 14:10 | 35.37540 | -81.08270 | 4696 ft | 246 kts | 353° |
| 2026-05-04 14:10 | 35.39245 | -81.08424 | 4493 ft | 242 kts | 353° |
| 2026-05-04 14:10 | 35.40892 | -81.08121 | 4313 ft | 239 kts | 23° |
| 2026-05-04 14:11 | 35.42081 | -81.06792 | 4132 ft | 230 kts | 59° |
| 2026-05-04 14:11 | 35.42691 | -81.03103 | 3738 ft | 220 kts | 82° |
| 2026-05-04 14:11 | 35.42893 | -81.01253 | 3537 ft | 218 kts | 82° |
| 2026-05-04 14:12 | 35.42936 | -80.99409 | 3321 ft | 215 kts | 104° |
| 2026-05-04 14:12 | 35.42209 | -80.97876 | 3137 ft | 209 kts | 135° |
| 2026-05-04 14:12 | 35.39897 | -80.95951 | 2979 ft | 191 kts | 159° |
| 2026-05-04 14:13 | 35.38685 | -80.95373 | 2980 ft | 185 kts | 167° |
| 2026-05-04 14:13 | 35.37410 | -80.95039 | 2992 ft | 188 kts | 174° |
| 2026-05-04 14:13 | 35.36098 | -80.94832 | 2993 ft | 191 kts | 177° |
| 2026-05-04 14:13 | 35.34755 | -80.94682 | 2991 ft | 194 kts | 178° |
| 2026-05-04 14:14 | 35.33395 | -80.94553 | 2858 ft | 190 kts | 178° |
| 2026-05-04 14:14 | 35.31079 | -80.94350 | 2425 ft | 151 kts | 179° |
| 2026-05-04 14:14 | 35.30051 | -80.94263 | 2233 ft | 147 kts | 179° |
| 2026-05-04 14:15 | 35.28052 | -80.94092 | 1849 ft | 140 kts | 178° |
| 2026-05-04 14:15 | 35.26127 | -80.93929 | 1484 ft | 139 kts | 178° |
| 2026-05-04 14:16 | 35.24208 | -80.93751 | 1115 ft | 138 kts | 178° |
| 2026-05-04 14:16 | 35.23246 | -80.93680 | 939 ft | 139 kts | 177° |
| 2026-05-04 14:17 | 35.21402 | -80.93523 | 730 ft | 103 kts | 176° |
| 2026-05-04 14:17 | 35.20968 | -80.93523 | 721 ft | 28 kts | 213° |
| 2026-05-04 14:17 | 35.20940 | -80.93577 | 721 ft | 1 kts | 264° |
| 2026-05-04 14:18 | 35.20945 | -80.93601 | 721 ft | 4 kts | 306° |
| 2026-05-04 14:18 | 35.21093 | -80.93631 | 724 ft | 17 kts | 356° |
| 2026-05-04 14:19 | 35.21342 | -80.93652 | 728 ft | 18 kts | 355° |
| 2026-05-04 14:19 | 35.21473 | -80.93664 | 731 ft | 19 kts | 355° |
| 2026-05-04 14:19 | 35.21612 | -80.93677 | 731 ft | 21 kts | 355° |
| 2026-05-04 14:19 | 35.21762 | -80.93690 | 733 ft | 22 kts | 356° |
| 2026-05-04 14:20 | 35.21909 | -80.93702 | 734 ft | 21 kts | 356° |
| 2026-05-04 14:20 | 35.22065 | -80.93716 | 735 ft | 22 kts | 356° |
| 2026-05-04 14:20 | 35.22221 | -80.93729 | 737 ft | 22 kts | 356° |
| 2026-05-04 14:21 | 35.22397 | -80.93773 | 736 ft | 11 kts | 268° |
| 2026-05-04 14:21 | 35.22439 | -80.93844 | 735 ft | 13 kts | 345° |
| 2026-05-04 14:21 | 35.22495 | -80.93891 | 734 ft | 6 kts | 320° |
| 2026-05-04 14:21 | 35.22535 | -80.93922 | 733 ft | 7 kts | 296° |
| 2026-05-04 14:22 | 35.22544 | -80.93964 | 732 ft | 3 kts | 284° |
| 2026-05-04 14:22 | 35.22545 | -80.93967 | 732 ft | 0 kts | 284° |